createdAt,value
2019-01-19T00:02:21.196Z,97.30
2019-01-19T00:05:10.375Z,97.30
2019-01-19T00:07:46.231Z,97.30
2019-01-19T00:10:38.774Z,97.40
2019-01-19T00:13:32.658Z,97.30
2019-01-19T00:16:19.159Z,97.30
2019-01-19T00:19:07.214Z,97.30
2019-01-19T00:21:42.565Z,97.20
2019-01-19T00:24:28.908Z,97.10
2019-01-19T00:27:15.189Z,97.10
2019-01-19T00:30:03.454Z,97.00
2019-01-19T00:32:34.979Z,97.00
2019-01-19T00:35:17.851Z,97.00
2019-01-19T00:37:45.544Z,96.90
2019-01-19T00:40:29.302Z,96.90
2019-01-19T00:42:59.385Z,96.90
2019-01-19T00:45:39.678Z,97.10
2019-01-19T00:48:11.172Z,97.40
2019-01-19T00:50:57.807Z,97.20
2019-01-19T00:53:32.091Z,97.20
2019-01-19T00:56:24.873Z,97.20
2019-01-19T00:58:59.529Z,97.40
2019-01-19T01:02:02.944Z,97.40
2019-01-19T01:04:40.353Z,97.50
2019-01-19T01:07:28.562Z,97.50
2019-01-19T01:10:00.173Z,97.50
2019-01-19T01:13:00.778Z,97.40
2019-01-19T01:15:38.034Z,97.40
2019-01-19T01:18:21.114Z,97.40
2019-01-19T01:21:12.002Z,97.40
2019-01-19T01:23:46.564Z,97.40
2019-01-19T01:26:39.276Z,97.40
2019-01-19T01:29:19.751Z,97.40
2019-01-19T01:32:00.071Z,97.50
2019-01-19T01:34:46.484Z,97.50
2019-01-19T01:37:32.782Z,97.40
2019-01-19T01:40:16.271Z,97.50
2019-01-19T01:42:50.684Z,97.50
2019-01-19T01:45:27.730Z,97.60
2019-01-19T01:48:05.151Z,97.60
2019-01-19T01:50:36.703Z,97.60
2019-01-19T01:53:23.420Z,97.80
2019-01-19T01:55:51.902Z,97.80
2019-01-19T01:58:23.440Z,97.70
2019-01-19T02:01:03.712Z,97.70
2019-01-19T02:04:04.102Z,97.70
2019-01-19T02:06:41.491Z,97.70
2019-01-19T02:09:33.583Z,97.70
2019-01-19T02:12:09.636Z,97.70
2019-01-19T02:14:41.171Z,97.80
2019-01-19T02:17:18.564Z,97.80
2019-01-19T02:19:52.622Z,97.80
2019-01-19T02:22:26.857Z,97.90
2019-01-19T02:25:17.692Z,97.90
2019-01-19T02:28:05.902Z,97.90
2019-01-19T02:30:40.252Z,97.90
2019-01-19T02:33:12.111Z,97.90
2019-01-19T02:35:56.727Z,97.80
2019-01-19T02:38:46.546Z,97.90
2019-01-19T02:41:26.848Z,97.90
2019-01-19T02:43:58.410Z,97.90
2019-01-19T02:46:38.769Z,97.90
2019-01-19T02:49:44.256Z,97.90
2019-01-19T02:52:18.598Z,98.00
2019-01-19T02:55:01.925Z,97.90
2019-01-19T02:57:47.996Z,97.80
2019-01-19T03:00:28.255Z,97.80
2019-01-19T03:03:16.197Z,97.70
2019-01-19T03:05:47.707Z,97.70
2019-01-19T03:08:21.813Z,97.60
2019-01-19T03:10:56.204Z,97.60
2019-01-19T03:13:30.164Z,97.50
2019-01-19T03:16:19.893Z,97.50
2019-01-19T03:18:51.796Z,97.70
2019-01-19T03:21:39.891Z,97.70
2019-01-19T03:24:25.665Z,97.50
2019-01-19T03:27:03.118Z,97.60
2019-01-19T03:29:43.625Z,97.60
2019-01-19T03:32:23.665Z,97.60
2019-01-19T03:35:04.225Z,97.60
2019-01-19T03:37:53.042Z,97.60
2019-01-19T03:40:47.240Z,97.50
2019-01-19T03:43:52.240Z,97.40
2019-01-19T03:46:33.028Z,97.40
2019-01-19T03:49:04.595Z,97.30
2019-01-19T03:51:36.124Z,97.30
2019-01-19T03:54:10.287Z,97.20
2019-01-19T03:57:06.489Z,97.20
2019-01-19T03:59:41.191Z,97.20
2019-01-19T04:02:41.289Z,97.20
2019-01-19T04:05:33.902Z,97.30
2019-01-19T04:08:26.206Z,97.50
2019-01-19T04:11:29.589Z,97.60
2019-01-19T04:14:17.449Z,97.60
2019-01-19T04:16:51.573Z,97.60
2019-01-19T04:19:35.184Z,97.50
2019-01-19T04:22:09.401Z,97.40
2019-01-19T04:24:40.951Z,97.30
2019-01-19T04:27:09.736Z,97.30
2019-01-19T04:29:38.221Z,97.40
2019-01-19T04:32:06.679Z,97.40
2019-01-19T04:34:35.696Z,97.60
2019-01-19T04:37:04.150Z,97.70
2019-01-19T04:39:32.966Z,97.70
2019-01-19T04:42:02.345Z,97.60
2019-01-19T04:44:30.813Z,97.50
2019-01-19T04:46:59.253Z,97.40
2019-01-19T04:49:27.737Z,97.30
2019-01-19T04:51:56.193Z,97.20
2019-01-19T04:54:24.807Z,97.20
2019-01-19T04:56:53.294Z,97.20
2019-01-19T04:59:22.117Z,97.20
2019-01-19T05:01:50.914Z,97.10
2019-01-19T05:04:19.683Z,97.10
2019-01-19T05:06:48.485Z,97.10
2019-01-19T05:09:16.965Z,97.10
2019-01-19T05:11:45.847Z,97.00
2019-01-19T05:14:14.301Z,97.00
2019-01-19T05:16:43.121Z,97.00
2019-01-19T05:19:11.562Z,97.10
2019-01-19T05:21:40.015Z,97.50
2019-01-19T05:24:08.475Z,97.40
2019-01-19T05:26:36.962Z,97.20
2019-01-19T05:29:05.443Z,97.20
2019-01-19T05:31:33.923Z,97.20
2019-01-19T05:34:02.381Z,97.30
2019-01-19T05:36:38.033Z,97.40
2019-01-19T05:39:01.036Z,97.30
2019-01-19T05:41:29.909Z,97.30
2019-01-19T05:43:58.748Z,97.40
2019-01-19T05:46:27.213Z,97.50
2019-01-19T05:48:55.657Z,97.60
2019-01-19T05:51:24.133Z,97.70
2019-01-19T05:53:52.584Z,97.80
2019-01-19T05:56:21.365Z,97.80
2019-01-19T05:58:49.830Z,97.80
2019-01-19T06:01:18.292Z,97.70
2019-01-19T06:03:46.743Z,97.60
2019-01-19T06:06:15.489Z,97.50
2019-01-19T06:08:43.965Z,97.50
2019-01-19T06:11:12.805Z,97.60
2019-01-19T06:13:42.595Z,97.70
2019-01-19T06:16:17.779Z,97.70
2019-01-19T06:18:48.419Z,97.60
2019-01-19T06:21:18.263Z,97.50
2019-01-19T06:23:47.665Z,97.40
2019-01-19T06:26:20.690Z,97.40
2019-01-19T06:28:49.285Z,97.30
2019-01-19T06:31:17.739Z,97.30
2019-01-19T06:33:46.578Z,97.30
2019-01-19T06:36:15.029Z,97.30
2019-01-19T06:38:51.121Z,97.30
2019-01-19T06:41:19.779Z,97.30
2019-01-19T06:43:48.496Z,97.30
2019-01-19T06:46:21.371Z,97.40
2019-01-19T06:48:50.617Z,97.60
2019-01-19T06:51:20.609Z,97.60
2019-01-19T06:53:49.541Z,97.50
2019-01-19T06:56:17.979Z,97.50
2019-01-19T06:58:46.431Z,97.40
2019-01-19T07:01:14.890Z,97.40
2019-01-19T07:03:56.715Z,97.30
2019-01-19T07:06:26.965Z,97.30
2019-01-19T07:08:55.505Z,97.30
2019-01-19T07:11:23.988Z,97.30
2019-01-19T07:13:52.445Z,97.30
2019-01-19T07:16:20.911Z,97.30
2019-01-19T07:18:49.391Z,97.30
2019-01-19T07:21:17.840Z,97.30
2019-01-19T07:23:46.682Z,97.30
2019-01-19T07:26:15.473Z,97.30
2019-01-19T07:28:43.958Z,97.30
2019-01-19T07:31:12.736Z,97.30
2019-01-19T07:33:41.195Z,97.30
2019-01-19T07:36:09.638Z,97.40
2019-01-19T07:38:38.113Z,97.40
2019-01-19T07:41:06.868Z,97.30
2019-01-19T07:43:36.100Z,97.20
2019-01-19T07:46:08.312Z,97.20
2019-01-19T07:52:05.292Z,97.20
2019-01-19T07:54:34.489Z,97.40
2019-01-19T07:57:02.930Z,97.40
2019-01-19T07:59:31.629Z,97.40
2019-01-19T08:02:00.061Z,97.40
2019-01-19T08:04:28.490Z,97.40
2019-01-19T08:06:56.972Z,97.40
2019-01-19T08:09:25.461Z,97.20
2019-01-19T08:11:53.875Z,97.20
2019-01-19T08:14:22.309Z,97.30
2019-01-19T08:16:50.786Z,97.30
2019-01-19T08:19:19.196Z,97.20
2019-01-19T08:21:47.713Z,96.60
2019-01-19T08:24:16.130Z,96.20
2019-01-19T08:26:44.562Z,95.50
2019-01-19T08:29:13.278Z,95.30
2019-01-19T08:31:42.064Z,95.30
2019-01-19T08:34:10.501Z,95.30
2019-01-19T08:36:38.908Z,95.30
2019-01-19T08:39:07.708Z,95.20
2019-01-19T08:41:36.401Z,95.00
2019-01-19T08:44:04.993Z,94.50
2019-01-19T08:46:33.443Z,94.10
2019-01-19T08:49:01.869Z,93.40
2019-01-19T08:51:30.728Z,93.10
2019-01-19T08:53:59.333Z,92.50
2019-01-19T08:56:27.751Z,91.40
2019-01-19T08:58:56.168Z,91.00
2019-01-19T09:01:24.958Z,90.10
2019-01-19T09:03:53.746Z,89.90
2019-01-19T09:06:22.172Z,89.70
2019-01-19T09:08:50.859Z,88.30
2019-01-19T09:11:19.275Z,87.10
2019-01-19T09:13:47.685Z,87.80
2019-01-19T09:16:16.103Z,87.90
2019-01-19T09:18:44.741Z,87.60
2019-01-19T09:21:13.189Z,87.90
2019-01-19T09:23:43.233Z,87.60
2019-01-19T09:26:11.894Z,86.50
2019-01-19T09:28:40.313Z,86.20
2019-01-19T09:31:08.801Z,86.00
2019-01-19T09:33:37.541Z,85.20
2019-01-19T09:36:05.964Z,85.00
2019-01-19T09:38:34.360Z,84.80
2019-01-19T09:41:02.783Z,84.90
2019-01-19T09:43:31.462Z,84.30
2019-01-19T09:45:59.878Z,84.60
2019-01-19T09:48:28.582Z,82.20
2019-01-19T09:50:57.062Z,81.60
2019-01-19T09:53:25.503Z,80.90
2019-01-19T09:55:53.962Z,80.60
2019-01-19T09:58:22.418Z,81.30
2019-01-19T10:00:51.242Z,81.30
2019-01-19T10:03:19.684Z,80.30
2019-01-19T10:05:48.228Z,80.80
2019-01-19T10:08:16.678Z,81.60
2019-01-19T10:10:46.101Z,80.60
2019-01-19T10:13:14.549Z,80.60
2019-01-19T10:15:42.993Z,81.00
2019-01-19T10:18:11.911Z,81.00
2019-01-19T10:20:40.358Z,80.00
2019-01-19T10:23:08.788Z,79.50
2019-01-19T10:25:37.235Z,79.60
2019-01-19T10:28:05.848Z,78.50
2019-01-19T10:30:34.461Z,78.60
2019-01-19T10:33:02.906Z,77.20
2019-01-19T10:35:31.365Z,77.80
2019-01-19T10:37:59.801Z,77.00
2019-01-19T10:40:28.288Z,76.20
2019-01-19T10:42:56.757Z,76.50
2019-01-19T10:45:27.067Z,76.90
2019-01-19T10:47:55.504Z,76.70
2019-01-19T10:50:23.939Z,75.60
2019-01-19T10:52:52.507Z,75.80
2019-01-19T10:55:23.213Z,75.30
2019-01-19T10:57:51.694Z,74.20
2019-01-19T11:00:31.853Z,75.10
2019-01-19T11:03:00.773Z,76.20
2019-01-19T11:05:29.906Z,76.20
2019-01-19T11:08:03.531Z,75.90
2019-01-19T11:10:35.712Z,74.50
2019-01-19T11:13:04.426Z,73.40
2019-01-19T11:15:32.877Z,73.10
2019-01-19T11:18:03.186Z,72.60
2019-01-19T11:20:32.627Z,73.20
2019-01-19T11:23:01.867Z,74.10
2019-01-19T11:25:30.809Z,74.50
2019-01-19T11:27:59.253Z,74.90
2019-01-19T11:30:32.408Z,76.70
2019-01-19T11:33:01.119Z,77.60
2019-01-19T11:35:29.725Z,77.00
2019-01-19T11:37:58.500Z,77.70
2019-01-19T11:40:29.846Z,77.00
2019-01-19T11:42:58.369Z,75.00
2019-01-19T11:45:27.006Z,74.80
2019-01-19T11:47:55.547Z,74.20
2019-01-19T11:50:23.994Z,74.20
2019-01-19T11:52:52.466Z,74.30
2019-01-19T11:55:21.577Z,74.40
2019-01-19T11:57:52.765Z,73.10
2019-01-19T12:00:33.122Z,72.20
2019-01-19T12:03:01.573Z,71.90
2019-01-19T12:05:30.018Z,71.20
2019-01-19T12:07:58.466Z,70.00
2019-01-19T12:10:29.446Z,69.60
2019-01-19T12:12:58.350Z,70.90
2019-01-19T12:15:28.076Z,69.60
2019-01-19T12:17:56.694Z,69.40
2019-01-19T12:20:36.724Z,69.10
2019-01-19T12:23:06.062Z,70.80
2019-01-19T12:25:34.525Z,71.50
2019-01-19T12:28:03.003Z,70.80
2019-01-19T12:30:33.665Z,71.90
2019-01-19T12:33:02.391Z,70.60
2019-01-19T12:35:31.048Z,70.30
2019-01-19T12:38:00.657Z,70.80
2019-01-19T12:40:30.795Z,68.90
2019-01-19T12:43:05.525Z,70.10
2019-01-19T12:45:51.644Z,69.90
2019-01-19T12:48:20.091Z,70.90
2019-01-19T12:50:49.307Z,69.80
2019-01-19T12:53:17.769Z,70.00
2019-01-19T12:55:46.223Z,69.70
2019-01-19T12:58:14.977Z,69.60
2019-01-19T13:00:43.913Z,70.20
2019-01-19T13:03:12.870Z,70.20
2019-01-19T13:05:53.379Z,69.40
2019-01-19T13:08:34.166Z,68.90
2019-01-19T13:11:05.956Z,69.20
2019-01-19T13:13:36.765Z,69.70
2019-01-19T13:16:29.839Z,68.80
2019-01-19T13:19:01.380Z,69.30
2019-01-19T13:21:32.898Z,68.50
2019-01-19T13:24:19.403Z,68.40
2019-01-19T13:27:24.289Z,68.70
2019-01-19T13:30:18.572Z,67.70
2019-01-19T13:33:14.531Z,68.20
2019-01-19T13:35:49.062Z,68.60
2019-01-19T13:38:23.157Z,69.30
2019-01-19T13:41:14.157Z,69.30
2019-01-19T13:44:01.117Z,69.20
2019-01-19T13:46:49.169Z,69.20
2019-01-19T13:49:29.710Z,69.40
2019-01-19T13:52:04.289Z,69.90
2019-01-19T13:54:45.047Z,69.80
2019-01-19T13:57:18.730Z,69.60
2019-01-19T14:00:04.910Z,70.80
2019-01-19T14:02:42.529Z,70.50
2019-01-19T14:05:31.998Z,70.90
2019-01-19T14:08:20.577Z,70.80
2019-01-19T14:11:08.334Z,71.00
2019-01-19T14:13:54.675Z,71.10
2019-01-19T14:16:26.212Z,71.60
2019-01-19T14:18:58.085Z,72.30
2019-01-19T14:21:44.529Z,72.20
2019-01-19T14:24:19.196Z,72.20
2019-01-19T14:27:07.361Z,72.60
2019-01-19T14:29:53.821Z,72.90
2019-01-19T14:32:40.017Z,73.10
2019-01-19T14:35:35.208Z,73.40
2019-01-19T14:38:09.499Z,73.70
2019-01-19T14:40:58.864Z,74.40
2019-01-19T14:43:30.554Z,74.50
2019-01-19T14:46:36.675Z,74.60
2019-01-19T14:49:11.656Z,75.00
2019-01-19T14:51:43.679Z,75.80
2019-01-19T14:54:36.319Z,76.00
2019-01-19T14:57:15.309Z,76.20
2019-01-19T14:59:58.330Z,76.40
2019-01-19T15:02:55.553Z,76.50
2019-01-19T15:05:42.499Z,76.50
2019-01-19T15:08:14.119Z,76.80
2019-01-19T15:11:00.733Z,76.90
2019-01-19T15:13:53.001Z,77.20
2019-01-19T15:16:57.991Z,77.20
2019-01-19T15:19:55.555Z,77.20
2019-01-19T15:22:34.201Z,77.70
2019-01-19T15:25:10.988Z,77.80
2019-01-19T15:27:53.878Z,78.10
2019-01-19T15:30:30.026Z,78.10
2019-01-19T15:33:10.241Z,78.70
2019-01-19T15:35:44.747Z,79.10
2019-01-19T15:38:34.226Z,79.20
2019-01-19T15:41:05.791Z,79.40
2019-01-19T15:44:01.126Z,79.60
2019-01-19T15:46:35.916Z,79.80
2019-01-19T15:49:19.565Z,79.90
2019-01-19T15:51:54.046Z,80.20
2019-01-19T15:54:28.314Z,80.50
2019-01-19T15:57:05.713Z,81.10
2019-01-19T15:59:49.258Z,81.20
2019-01-19T16:02:42.248Z,81.40
2019-01-19T16:05:14.040Z,81.70
2019-01-19T16:07:57.544Z,82.00
2019-01-19T16:10:47.188Z,82.20
2019-01-19T16:13:26.619Z,82.40
2019-01-19T16:16:13.113Z,82.60
2019-01-19T16:18:50.502Z,82.80
2019-01-19T16:21:27.779Z,83.20
2019-01-19T16:24:11.270Z,83.50
2019-01-19T16:26:51.671Z,83.40
2019-01-19T16:29:57.150Z,83.60
2019-01-19T16:32:44.082Z,83.80
2019-01-19T16:35:50.093Z,84.10
2019-01-19T16:38:21.652Z,84.10
2019-01-19T16:40:58.779Z,84.50
2019-01-19T16:43:38.905Z,84.50
2019-01-19T16:46:21.694Z,84.60
2019-01-19T16:48:55.881Z,84.50
2019-01-19T16:51:33.567Z,84.60
2019-01-19T16:54:14.198Z,84.80
2019-01-19T16:56:45.708Z,84.60
2019-01-19T16:59:44.678Z,85.10
2019-01-19T17:02:31.278Z,85.20
2019-01-19T17:05:36.095Z,85.10
2019-01-19T17:08:05.252Z,85.10
2019-01-19T17:10:48.501Z,85.20
2019-01-19T17:13:29.165Z,85.20
2019-01-19T17:16:03.262Z,85.10
2019-01-19T17:18:43.629Z,86.00
2019-01-19T17:21:26.666Z,86.40
2019-01-19T17:24:07.204Z,86.50
2019-01-19T17:26:57.279Z,86.50
2019-01-19T17:29:30.411Z,86.50
2019-01-19T17:32:02.236Z,86.50
2019-01-19T17:34:48.690Z,86.50
2019-01-19T17:37:32.007Z,86.70
2019-01-19T17:40:15.718Z,86.90
2019-01-19T17:42:47.259Z,87.00
2019-01-19T17:45:30.397Z,87.40
2019-01-19T17:48:19.979Z,87.40
2019-01-19T17:51:17.053Z,87.60
2019-01-19T17:53:54.338Z,87.70
2019-01-19T17:56:40.497Z,88.10
2019-01-19T17:59:20.793Z,88.20
2019-01-19T18:02:14.950Z,88.20
2019-01-19T18:04:54.994Z,88.20
2019-01-19T18:07:32.166Z,88.30
2019-01-19T18:10:20.719Z,88.40
2019-01-19T18:12:55.226Z,88.50
2019-01-19T18:15:47.092Z,88.60
2019-01-19T18:18:30.183Z,88.50
2019-01-19T18:21:13.501Z,88.60
2019-01-19T18:24:05.505Z,88.70
2019-01-19T18:26:55.129Z,88.70
2019-01-19T18:29:52.267Z,88.70
2019-01-19T18:32:39.192Z,88.80
2019-01-19T18:35:25.606Z,89.10
2019-01-19T18:38:03.063Z,89.20
2019-01-19T18:40:40.434Z,89.10
2019-01-19T18:43:26.711Z,89.50
2019-01-19T18:46:16.338Z,89.60
2019-01-19T18:49:08.084Z,89.70
2019-01-19T18:51:48.254Z,89.90
2019-01-19T18:54:42.355Z,89.90
2019-01-19T18:57:20.196Z,90.00
2019-01-19T18:59:57.729Z,90.10
2019-01-19T19:02:32.331Z,90.30
2019-01-19T19:05:15.822Z,90.50
2019-01-19T19:07:53.333Z,90.50
2019-01-19T19:10:41.128Z,90.60
2019-01-19T19:13:24.442Z,90.70
2019-01-19T19:15:57.951Z,90.90
2019-01-19T19:18:44.411Z,91.00
2019-01-19T19:21:31.011Z,91.10
2019-01-19T19:24:08.473Z,90.90
2019-01-19T19:26:51.902Z,91.00
2019-01-19T19:29:43.017Z,91.30
2019-01-19T19:32:20.443Z,91.50
2019-01-19T19:35:15.746Z,91.70
2019-01-19T19:37:52.952Z,91.50
2019-01-19T19:40:30.031Z,91.40
2019-01-19T19:43:15.945Z,91.50
2019-01-19T19:45:50.310Z,91.50
2019-01-19T19:48:27.688Z,91.60
2019-01-19T19:51:00.609Z,91.70
2019-01-19T19:53:29.084Z,91.70
2019-01-19T19:55:56.453Z,91.90
2019-01-19T19:58:24.913Z,92.00
2019-01-19T20:00:53.371Z,92.00
2019-01-19T20:03:21.984Z,92.00
2019-01-19T20:05:50.502Z,92.20
2019-01-19T20:08:19.205Z,92.10
2019-01-19T20:10:47.699Z,92.20
2019-01-19T20:13:16.164Z,92.10
2019-01-19T20:15:44.658Z,92.10
2019-01-19T20:18:13.450Z,92.20
2019-01-19T20:20:41.946Z,92.00
2019-01-19T20:23:10.386Z,92.20
2019-01-19T20:25:38.866Z,92.30
2019-01-19T20:28:07.655Z,92.40
2019-01-19T20:30:36.172Z,92.40
2019-01-19T20:33:04.643Z,92.40
2019-01-19T20:35:33.140Z,92.50
2019-01-19T20:38:01.613Z,92.60
2019-01-19T20:40:30.533Z,92.60
2019-01-19T20:42:59.372Z,92.60
2019-01-19T20:45:27.953Z,92.50
2019-01-19T20:47:56.610Z,92.60
2019-01-19T20:50:25.846Z,92.70
2019-01-19T20:52:54.663Z,92.70
2019-01-19T20:55:23.211Z,92.80
2019-01-19T20:57:51.693Z,92.80
2019-01-19T21:00:20.438Z,92.70
2019-01-19T21:02:48.905Z,92.80
2019-01-19T21:05:17.354Z,92.80
2019-01-19T21:07:45.835Z,93.00
2019-01-19T21:10:14.575Z,93.10
2019-01-19T21:12:43.151Z,93.10
2019-01-19T21:15:15.408Z,93.10
2019-01-19T21:17:44.111Z,93.00
2019-01-19T21:20:15.258Z,93.10
2019-01-19T21:22:43.722Z,93.20
2019-01-19T21:25:13.631Z,93.20
2019-01-19T21:27:42.357Z,93.10
2019-01-19T21:30:16.150Z,93.20
2019-01-19T21:32:44.654Z,93.30
2019-01-19T21:35:14.066Z,93.30
2019-01-19T21:37:43.127Z,93.30
2019-01-19T21:40:14.111Z,93.30
2019-01-19T21:42:42.618Z,93.40
2019-01-19T21:45:21.462Z,93.60
2019-01-19T21:47:49.954Z,93.60
2019-01-19T21:50:19.968Z,93.60
2019-01-19T21:52:48.466Z,93.70
2019-01-19T21:55:16.967Z,93.80
2019-01-19T21:57:45.472Z,93.90
2019-01-19T22:00:20.009Z,94.00
2019-01-19T22:02:48.498Z,94.00
2019-01-19T22:05:16.964Z,94.10
2019-01-19T22:07:45.463Z,94.30
2019-01-19T22:10:19.587Z,94.30
2019-01-19T22:12:48.458Z,94.30
2019-01-19T22:15:18.568Z,94.40
2019-01-19T22:17:47.043Z,94.60
2019-01-19T22:20:17.745Z,94.50
2019-01-19T22:22:46.397Z,94.50
2019-01-19T22:25:15.421Z,94.60
2019-01-19T22:27:45.534Z,94.60
2019-01-19T22:30:17.119Z,94.60
2019-01-19T22:32:46.472Z,94.60
2019-01-19T22:35:14.917Z,94.60
2019-01-19T22:37:43.423Z,94.70
2019-01-19T22:40:15.052Z,94.70
2019-01-19T22:42:43.536Z,94.70
2019-01-19T22:45:13.958Z,94.70
2019-01-19T22:47:42.811Z,94.70
2019-01-19T22:50:16.594Z,94.80
2019-01-19T22:52:45.098Z,94.80
2019-01-19T22:55:14.439Z,94.90
2019-01-19T22:57:43.266Z,94.90
2019-01-19T23:00:45.148Z,94.90
2019-01-19T23:03:13.970Z,94.90
2019-01-19T23:05:42.439Z,94.90
2019-01-19T23:08:11.333Z,94.90
2019-01-19T23:10:39.886Z,94.90
2019-01-19T23:13:08.383Z,94.90
2019-01-19T23:15:36.843Z,94.90
2019-01-19T23:18:05.330Z,94.90
2019-01-19T23:20:34.131Z,94.90
2019-01-19T23:23:02.610Z,95.00
2019-01-19T23:25:31.096Z,95.00
2019-01-19T23:27:59.555Z,95.00
2019-01-19T23:30:28.034Z,94.90
2019-01-19T23:32:56.545Z,94.90
2019-01-19T23:35:25.030Z,95.20
2019-01-19T23:37:53.899Z,95.20
2019-01-19T23:40:22.677Z,95.10
2019-01-19T23:42:51.156Z,95.00
2019-01-19T23:45:19.679Z,95.10
2019-01-19T23:47:48.179Z,95.20
2019-01-19T23:50:16.839Z,95.20
2019-01-19T23:52:45.328Z,95.20
2019-01-19T23:55:14.177Z,95.10
2019-01-19T23:57:42.968Z,95.00
